sensor_id;sensor_type;location;lat;lon;timestamp;P1;durP1;ratioP1;P2;durP2;ratioP2
74487;SDS011;63019;51.080;13.642;2024-02-14T00:00:38;2.95;;;1.38;;
74487;SDS011;63019;51.080;13.642;2024-02-14T00:01:42;3.47;;;1.50;;
74487;SDS011;63019;51.080;13.642;2024-02-14T00:02:44;5.00;;;1.70;;
74487;SDS011;63019;51.080;13.642;2024-02-14T00:03:47;6.90;;;1.60;;
74487;SDS011;63019;51.080;13.642;2024-02-14T00:04:49;3.87;;;1.60;;
74487;SDS011;63019;51.080;13.642;2024-02-14T00:05:51;5.03;;;1.50;;
74487;SDS011;63019;51.080;13.642;2024-02-14T00:06:56;5.03;;;1.60;;
74487;SDS011;63019;51.080;13.642;2024-02-14T00:08:06;3.20;;;1.35;;
74487;SDS011;63019;51.080;13.642;2024-02-14T00:09:26;3.20;;;1.30;;
74487;SDS011;63019;51.080;13.642;2024-02-14T00:10:34;2.70;;;1.00;;
74487;SDS011;63019;51.080;13.642;2024-02-14T00:11:58;4.07;;;1.50;;
74487;SDS011;63019;51.080;13.642;2024-02-14T00:13:03;2.20;;;1.20;;
74487;SDS011;63019;51.080;13.642;2024-02-14T00:14:05;4.10;;;1.33;;
74487;SDS011;63019;51.080;13.642;2024-02-14T00:15:08;6.30;;;1.42;;
74487;SDS011;63019;51.080;13.642;2024-02-14T00:16:10;3.37;;;1.40;;
74487;SDS011;63019;51.080;13.642;2024-02-14T00:17:12;2.17;;;1.23;;
74487;SDS011;63019;51.080;13.642;2024-02-14T00:18:14;2.72;;;1.20;;
74487;SDS011;63019;51.080;13.642;2024-02-14T00:19:17;4.80;;;1.52;;
74487;SDS011;63019;51.080;13.642;2024-02-14T00:20:19;4.32;;;1.23;;
74487;SDS011;63019;51.080;13.642;2024-02-14T00:21:21;4.15;;;1.50;;
74487;SDS011;63019;51.080;13.642;2024-02-14T00:22:23;4.05;;;1.52;;
74487;SDS011;63019;51.080;13.642;2024-02-14T00:23:25;3.50;;;1.13;;
74487;SDS011;63019;51.080;13.642;2024-02-14T00:24:27;3.53;;;1.42;;
74487;SDS011;63019;51.080;13.642;2024-02-14T00:25:31;5.55;;;1.33;;
74487;SDS011;63019;51.080;13.642;2024-02-14T00:26:34;4.80;;;1.40;;
74487;SDS011;63019;51.080;13.642;2024-02-14T00:27:37;5.28;;;1.17;;
74487;SDS011;63019;51.080;13.642;2024-02-14T00:28:39;3.72;;;1.30;;
74487;SDS011;63019;51.080;13.642;2024-02-14T00:29:41;4.65;;;1.88;;
74487;SDS011;63019;51.080;13.642;2024-02-14T00:30:46;3.35;;;1.55;;
74487;SDS011;63019;51.080;13.642;2024-02-14T00:31:48;1.60;;;1.10;;
74487;SDS011;63019;51.080;13.642;2024-02-14T00:32:50;4.75;;;1.33;;
74487;SDS011;63019;51.080;13.642;2024-02-14T00:33:52;4.20;;;1.60;;
74487;SDS011;63019;51.080;13.642;2024-02-14T00:34:55;5.75;;;1.85;;
74487;SDS011;63019;51.080;13.642;2024-02-14T00:35:57;2.60;;;1.15;;
74487;SDS011;63019;51.080;13.642;2024-02-14T00:36:59;5.03;;;1.60;;
74487;SDS011;63019;51.080;13.642;2024-02-14T00:38:01;4.80;;;1.45;;
74487;SDS011;63019;51.080;13.642;2024-02-14T00:39:02;4.22;;;1.35;;
74487;SDS011;63019;51.080;13.642;2024-02-14T00:40:05;5.78;;;1.60;;
74487;SDS011;63019;51.080;13.642;2024-02-14T00:41:07;2.63;;;1.42;;
74487;SDS011;63019;51.080;13.642;2024-02-14T00:42:11;2.63;;;1.15;;
74487;SDS011;63019;51.080;13.642;2024-02-14T00:43:13;3.00;;;1.30;;
74487;SDS011;63019;51.080;13.642;2024-02-14T00:44:15;4.20;;;1.60;;
74487;SDS011;63019;51.080;13.642;2024-02-14T00:45:18;4.40;;;1.40;;
74487;SDS011;63019;51.080;13.642;2024-02-14T00:46:20;5.50;;;1.67;;
74487;SDS011;63019;51.080;13.642;2024-02-14T00:47:22;4.97;;;1.80;;
74487;SDS011;63019;51.080;13.642;2024-02-14T00:48:24;4.28;;;1.60;;
74487;SDS011;63019;51.080;13.642;2024-02-14T00:49:26;4.38;;;2.00;;
74487;SDS011;63019;51.080;13.642;2024-02-14T00:50:28;4.78;;;1.80;;
74487;SDS011;63019;51.080;13.642;2024-02-14T00:51:30;6.30;;;2.55;;
74487;SDS011;63019;51.080;13.642;2024-02-14T00:52:32;12.82;;;2.65;;
74487;SDS011;63019;51.080;13.642;2024-02-14T00:53:34;8.10;;;2.08;;
74487;SDS011;63019;51.080;13.642;2024-02-14T00:54:36;6.63;;;2.20;;
74487;SDS011;63019;51.080;13.642;2024-02-14T00:55:38;7.50;;;1.75;;
74487;SDS011;63019;51.080;13.642;2024-02-14T00:56:40;4.35;;;2.03;;
74487;SDS011;63019;51.080;13.642;2024-02-14T00:57:41;3.67;;;1.80;;
74487;SDS011;63019;51.080;13.642;2024-02-14T00:58:43;6.72;;;1.80;;
74487;SDS011;63019;51.080;13.642;2024-02-14T00:59:45;2.67;;;1.67;;
74487;SDS011;63019;51.080;13.642;2024-02-14T01:00:47;4.10;;;2.17;;
74487;SDS011;63019;51.080;13.642;2024-02-14T01:01:50;7.28;;;2.78;;
74487;SDS011;63019;51.080;13.642;2024-02-14T01:02:52;4.57;;;1.88;;
74487;SDS011;63019;51.080;13.642;2024-02-14T01:03:54;4.47;;;1.90;;
74487;SDS011;63019;51.080;13.642;2024-02-14T01:04:56;5.15;;;2.30;;
74487;SDS011;63019;51.080;13.642;2024-02-14T01:05:58;5.97;;;2.22;;
74487;SDS011;63019;51.080;13.642;2024-02-14T01:07:00;5.80;;;2.28;;
74487;SDS011;63019;51.080;13.642;2024-02-14T01:08:02;6.97;;;2.50;;
74487;SDS011;63019;51.080;13.642;2024-02-14T01:09:04;5.18;;;2.67;;
74487;SDS011;63019;51.080;13.642;2024-02-14T01:10:06;4.57;;;2.40;;
74487;SDS011;63019;51.080;13.642;2024-02-14T01:11:11;6.90;;;2.70;;
74487;SDS011;63019;51.080;13.642;2024-02-14T01:13:50;6.80;;;2.88;;
74487;SDS011;63019;51.080;13.642;2024-02-14T01:14:53;4.95;;;2.55;;
74487;SDS011;63019;51.080;13.642;2024-02-14T01:15:55;4.32;;;2.30;;
74487;SDS011;63019;51.080;13.642;2024-02-14T01:16:57;8.98;;;2.90;;
74487;SDS011;63019;51.080;13.642;2024-02-14T01:17:58;9.32;;;2.50;;
74487;SDS011;63019;51.080;13.642;2024-02-14T01:19:01;6.93;;;2.70;;
74487;SDS011;63019;51.080;13.642;2024-02-14T01:20:04;5.68;;;2.30;;
74487;SDS011;63019;51.080;13.642;2024-02-14T01:21:10;7.45;;;2.75;;
74487;SDS011;63019;51.080;13.642;2024-02-14T01:22:12;6.40;;;2.35;;
74487;SDS011;63019;51.080;13.642;2024-02-14T01:23:17;6.35;;;2.60;;
74487;SDS011;63019;51.080;13.642;2024-02-14T01:24:19;5.78;;;2.42;;
74487;SDS011;63019;51.080;13.642;2024-02-14T01:25:21;3.80;;;2.05;;
74487;SDS011;63019;51.080;13.642;2024-02-14T01:26:23;6.43;;;2.47;;
74487;SDS011;63019;51.080;13.642;2024-02-14T01:27:24;3.88;;;2.28;;
74487;SDS011;63019;51.080;13.642;2024-02-14T01:28:26;8.27;;;2.22;;
74487;SDS011;63019;51.080;13.642;2024-02-14T01:29:28;8.73;;;2.50;;
74487;SDS011;63019;51.080;13.642;2024-02-14T01:30:30;4.38;;;1.88;;
74487;SDS011;63019;51.080;13.642;2024-02-14T01:31:35;2.85;;;1.67;;
74487;SDS011;63019;51.080;13.642;2024-02-14T01:32:37;5.90;;;2.30;;
74487;SDS011;63019;51.080;13.642;2024-02-14T01:33:40;5.80;;;2.30;;
74487;SDS011;63019;51.080;13.642;2024-02-14T01:34:42;5.22;;;2.30;;
74487;SDS011;63019;51.080;13.642;2024-02-14T01:35:45;5.50;;;2.30;;
74487;SDS011;63019;51.080;13.642;2024-02-14T01:36:47;4.72;;;2.28;;
74487;SDS011;63019;51.080;13.642;2024-02-14T01:37:49;9.00;;;2.65;;
74487;SDS011;63019;51.080;13.642;2024-02-14T01:38:53;6.30;;;2.63;;
74487;SDS011;63019;51.080;13.642;2024-02-14T01:39:55;7.63;;;2.77;;
74487;SDS011;63019;51.080;13.642;2024-02-14T01:40:57;9.57;;;3.10;;
74487;SDS011;63019;51.080;13.642;2024-02-14T01:41:59;4.50;;;2.53;;
74487;SDS011;63019;51.080;13.642;2024-02-14T01:43:01;6.63;;;2.70;;
74487;SDS011;63019;51.080;13.642;2024-02-14T01:44:03;5.47;;;2.63;;
74487;SDS011;63019;51.080;13.642;2024-02-14T01:45:05;4.50;;;2.38;;
74487;SDS011;63019;51.080;13.642;2024-02-14T01:46:08;9.02;;;2.35;;
74487;SDS011;63019;51.080;13.642;2024-02-14T01:47:10;8.88;;;2.78;;
74487;SDS011;63019;51.080;13.642;2024-02-14T01:48:13;4.18;;;2.47;;
74487;SDS011;63019;51.080;13.642;2024-02-14T01:49:20;5.10;;;2.97;;
74487;SDS011;63019;51.080;13.642;2024-02-14T01:50:22;6.70;;;2.47;;
74487;SDS011;63019;51.080;13.642;2024-02-14T01:51:30;4.40;;;2.25;;
74487;SDS011;63019;51.080;13.642;2024-02-14T01:54:11;7.18;;;3.15;;
74487;SDS011;63019;51.080;13.642;2024-02-14T01:55:43;7.13;;;2.65;;
74487;SDS011;63019;51.080;13.642;2024-02-14T01:56:46;7.20;;;2.83;;
74487;SDS011;63019;51.080;13.642;2024-02-14T01:57:49;6.18;;;2.75;;
74487;SDS011;63019;51.080;13.642;2024-02-14T01:58:54;7.65;;;2.90;;
74487;SDS011;63019;51.080;13.642;2024-02-14T02:00:53;6.93;;;2.67;;
74487;SDS011;63019;51.080;13.642;2024-02-14T02:02:01;6.90;;;2.80;;
74487;SDS011;63019;51.080;13.642;2024-02-14T02:03:13;5.00;;;2.60;;
74487;SDS011;63019;51.080;13.642;2024-02-14T02:04:15;10.55;;;3.08;;
74487;SDS011;63019;51.080;13.642;2024-02-14T02:05:18;5.97;;;2.80;;
74487;SDS011;63019;51.080;13.642;2024-02-14T02:06:20;6.55;;;2.92;;
74487;SDS011;63019;51.080;13.642;2024-02-14T02:07:22;5.50;;;2.75;;
74487;SDS011;63019;51.080;13.642;2024-02-14T02:08:24;7.88;;;2.75;;
74487;SDS011;63019;51.080;13.642;2024-02-14T02:09:26;6.60;;;2.88;;
74487;SDS011;63019;51.080;13.642;2024-02-14T02:10:28;6.35;;;3.13;;
74487;SDS011;63019;51.080;13.642;2024-02-14T02:11:30;6.80;;;2.78;;
74487;SDS011;63019;51.080;13.642;2024-02-14T02:12:43;6.75;;;2.50;;
74487;SDS011;63019;51.080;13.642;2024-02-14T02:13:45;5.30;;;2.53;;
74487;SDS011;63019;51.080;13.642;2024-02-14T02:14:46;7.47;;;2.72;;
74487;SDS011;63019;51.080;13.642;2024-02-14T02:15:48;5.38;;;2.60;;
74487;SDS011;63019;51.080;13.642;2024-02-14T02:16:50;6.50;;;2.63;;
74487;SDS011;63019;51.080;13.642;2024-02-14T02:17:53;7.30;;;3.03;;
74487;SDS011;63019;51.080;13.642;2024-02-14T02:18:56;5.00;;;2.35;;
74487;SDS011;63019;51.080;13.642;2024-02-14T02:19:59;6.20;;;2.60;;
74487;SDS011;63019;51.080;13.642;2024-02-14T02:21:03;3.83;;;2.00;;
74487;SDS011;63019;51.080;13.642;2024-02-14T02:22:08;5.70;;;2.40;;
74487;SDS011;63019;51.080;13.642;2024-02-14T02:23:11;8.25;;;2.60;;
74487;SDS011;63019;51.080;13.642;2024-02-14T02:24:16;4.63;;;2.40;;
74487;SDS011;63019;51.080;13.642;2024-02-14T02:25:19;8.98;;;2.70;;
74487;SDS011;63019;51.080;13.642;2024-02-14T02:26:28;6.78;;;2.60;;
74487;SDS011;63019;51.080;13.642;2024-02-14T02:27:30;3.72;;;2.13;;
74487;SDS011;63019;51.080;13.642;2024-02-14T02:28:32;6.55;;;3.05;;
74487;SDS011;63019;51.080;13.642;2024-02-14T02:29:33;8.43;;;2.70;;
74487;SDS011;63019;51.080;13.642;2024-02-14T02:30:36;6.03;;;2.72;;
74487;SDS011;63019;51.080;13.642;2024-02-14T02:31:38;4.75;;;2.90;;
74487;SDS011;63019;51.080;13.642;2024-02-14T02:32:40;7.22;;;3.10;;
74487;SDS011;63019;51.080;13.642;2024-02-14T02:33:44;6.13;;;2.97;;
74487;SDS011;63019;51.080;13.642;2024-02-14T02:34:46;5.97;;;2.80;;
74487;SDS011;63019;51.080;13.642;2024-02-14T02:35:48;6.70;;;2.45;;
74487;SDS011;63019;51.080;13.642;2024-02-14T02:36:51;7.95;;;2.63;;
74487;SDS011;63019;51.080;13.642;2024-02-14T02:37:53;6.15;;;2.63;;
74487;SDS011;63019;51.080;13.642;2024-02-14T02:38:55;6.35;;;2.30;;
74487;SDS011;63019;51.080;13.642;2024-02-14T02:39:59;4.13;;;2.50;;
74487;SDS011;63019;51.080;13.642;2024-02-14T02:41:01;5.05;;;2.40;;
74487;SDS011;63019;51.080;13.642;2024-02-14T02:42:03;5.18;;;2.70;;
74487;SDS011;63019;51.080;13.642;2024-02-14T02:43:05;6.22;;;2.67;;
74487;SDS011;63019;51.080;13.642;2024-02-14T02:44:07;6.22;;;2.60;;
74487;SDS011;63019;51.080;13.642;2024-02-14T02:45:09;4.77;;;2.50;;
74487;SDS011;63019;51.080;13.642;2024-02-14T02:46:11;5.50;;;2.47;;
74487;SDS011;63019;51.080;13.642;2024-02-14T02:47:13;6.68;;;2.75;;
74487;SDS011;63019;51.080;13.642;2024-02-14T02:48:17;5.15;;;2.70;;
74487;SDS011;63019;51.080;13.642;2024-02-14T02:49:21;9.10;;;2.63;;
74487;SDS011;63019;51.080;13.642;2024-02-14T02:50:23;5.63;;;2.38;;
74487;SDS011;63019;51.080;13.642;2024-02-14T02:51:27;5.53;;;2.63;;
74487;SDS011;63019;51.080;13.642;2024-02-14T02:52:29;6.13;;;2.95;;
74487;SDS011;63019;51.080;13.642;2024-02-14T02:53:32;5.35;;;2.50;;
74487;SDS011;63019;51.080;13.642;2024-02-14T02:54:34;13.70;;;3.20;;
74487;SDS011;63019;51.080;13.642;2024-02-14T02:55:36;6.63;;;3.00;;
74487;SDS011;63019;51.080;13.642;2024-02-14T02:56:38;5.80;;;3.20;;
74487;SDS011;63019;51.080;13.642;2024-02-14T02:57:43;8.90;;;2.95;;
74487;SDS011;63019;51.080;13.642;2024-02-14T02:58:46;6.65;;;2.80;;
74487;SDS011;63019;51.080;13.642;2024-02-14T02:59:49;6.80;;;3.10;;
74487;SDS011;63019;51.080;13.642;2024-02-14T03:00:51;8.15;;;2.65;;
74487;SDS011;63019;51.080;13.642;2024-02-14T03:01:57;4.97;;;2.42;;
74487;SDS011;63019;51.080;13.642;2024-02-14T03:02:59;6.75;;;2.85;;
74487;SDS011;63019;51.080;13.642;2024-02-14T03:04:02;7.03;;;2.75;;
74487;SDS011;63019;51.080;13.642;2024-02-14T03:05:04;5.13;;;2.35;;
74487;SDS011;63019;51.080;13.642;2024-02-14T03:06:11;6.53;;;2.70;;
74487;SDS011;63019;51.080;13.642;2024-02-14T03:07:14;4.88;;;2.40;;
74487;SDS011;63019;51.080;13.642;2024-02-14T03:08:15;6.03;;;2.60;;
74487;SDS011;63019;51.080;13.642;2024-02-14T03:09:17;7.10;;;2.58;;
74487;SDS011;63019;51.080;13.642;2024-02-14T03:10:19;5.78;;;2.35;;
74487;SDS011;63019;51.080;13.642;2024-02-14T03:11:22;7.32;;;2.47;;
74487;SDS011;63019;51.080;13.642;2024-02-14T03:12:24;7.85;;;2.10;;
74487;SDS011;63019;51.080;13.642;2024-02-14T03:13:29;7.43;;;2.78;;
74487;SDS011;63019;51.080;13.642;2024-02-14T03:14:31;4.72;;;2.40;;
74487;SDS011;63019;51.080;13.642;2024-02-14T03:15:34;6.50;;;2.80;;
74487;SDS011;63019;51.080;13.642;2024-02-14T03:16:36;4.33;;;2.40;;
74487;SDS011;63019;51.080;13.642;2024-02-14T03:17:38;6.07;;;2.40;;
74487;SDS011;63019;51.080;13.642;2024-02-14T03:18:41;5.68;;;2.30;;
74487;SDS011;63019;51.080;13.642;2024-02-14T03:19:43;4.25;;;2.20;;
74487;SDS011;63019;51.080;13.642;2024-02-14T03:20:45;8.50;;;2.70;;
74487;SDS011;63019;51.080;13.642;2024-02-14T03:21:47;6.35;;;2.85;;
74487;SDS011;63019;51.080;13.642;2024-02-14T03:22:49;5.85;;;2.15;;
74487;SDS011;63019;51.080;13.642;2024-02-14T03:23:50;5.43;;;2.30;;
74487;SDS011;63019;51.080;13.642;2024-02-14T03:24:55;4.43;;;2.45;;
74487;SDS011;63019;51.080;13.642;2024-02-14T03:25:57;5.43;;;2.10;;
74487;SDS011;63019;51.080;13.642;2024-02-14T03:26:59;3.40;;;2.07;;
74487;SDS011;63019;51.080;13.642;2024-02-14T03:28:01;6.65;;;2.42;;
74487;SDS011;63019;51.080;13.642;2024-02-14T03:29:06;4.15;;;2.05;;
74487;SDS011;63019;51.080;13.642;2024-02-14T03:30:08;4.80;;;2.20;;
74487;SDS011;63019;51.080;13.642;2024-02-14T03:31:13;4.45;;;2.40;;
74487;SDS011;63019;51.080;13.642;2024-02-14T03:32:18;5.18;;;2.10;;
74487;SDS011;63019;51.080;13.642;2024-02-14T03:33:21;4.72;;;2.25;;
74487;SDS011;63019;51.080;13.642;2024-02-14T03:34:23;5.90;;;2.20;;
74487;SDS011;63019;51.080;13.642;2024-02-14T03:36:53;4.57;;;2.08;;
74487;SDS011;63019;51.080;13.642;2024-02-14T03:38:05;4.43;;;2.20;;
74487;SDS011;63019;51.080;13.642;2024-02-14T03:39:09;6.10;;;2.13;;
74487;SDS011;63019;51.080;13.642;2024-02-14T03:40:11;5.40;;;2.22;;
74487;SDS011;63019;51.080;13.642;2024-02-14T03:41:13;9.10;;;2.67;;
74487;SDS011;63019;51.080;13.642;2024-02-14T03:42:15;4.65;;;2.28;;
74487;SDS011;63019;51.080;13.642;2024-02-14T03:43:18;3.50;;;1.98;;
74487;SDS011;63019;51.080;13.642;2024-02-14T03:44:20;5.50;;;2.55;;
74487;SDS011;63019;51.080;13.642;2024-02-14T03:45:23;5.88;;;2.45;;
74487;SDS011;63019;51.080;13.642;2024-02-14T03:46:24;5.43;;;2.20;;
74487;SDS011;63019;51.080;13.642;2024-02-14T03:47:28;4.32;;;2.25;;
74487;SDS011;63019;51.080;13.642;2024-02-14T03:51:13;4.30;;;2.28;;
74487;SDS011;63019;51.080;13.642;2024-02-14T03:52:21;6.05;;;2.00;;
74487;SDS011;63019;51.080;13.642;2024-02-14T03:53:23;6.65;;;2.28;;
74487;SDS011;63019;51.080;13.642;2024-02-14T03:54:25;6.65;;;2.15;;
74487;SDS011;63019;51.080;13.642;2024-02-14T03:55:27;11.63;;;2.85;;
74487;SDS011;63019;51.080;13.642;2024-02-14T03:56:31;8.93;;;3.42;;
74487;SDS011;63019;51.080;13.642;2024-02-14T03:57:34;5.53;;;2.17;;
74487;SDS011;63019;51.080;13.642;2024-02-14T03:58:40;5.45;;;2.10;;
74487;SDS011;63019;51.080;13.642;2024-02-14T03:59:41;4.88;;;2.00;;
74487;SDS011;63019;51.080;13.642;2024-02-14T04:00:43;4.67;;;2.10;;
74487;SDS011;63019;51.080;13.642;2024-02-14T04:01:45;2.70;;;1.75;;
74487;SDS011;63019;51.080;13.642;2024-02-14T04:02:47;3.95;;;1.90;;
74487;SDS011;63019;51.080;13.642;2024-02-14T04:03:50;4.22;;;2.22;;
74487;SDS011;63019;51.080;13.642;2024-02-14T04:04:52;4.35;;;2.03;;
74487;SDS011;63019;51.080;13.642;2024-02-14T04:05:54;4.22;;;2.10;;
74487;SDS011;63019;51.080;13.642;2024-02-14T04:06:56;6.55;;;2.17;;
74487;SDS011;63019;51.080;13.642;2024-02-14T04:07:59;3.55;;;1.95;;
74487;SDS011;63019;51.080;13.642;2024-02-14T04:09:01;5.20;;;2.28;;
74487;SDS011;63019;51.080;13.642;2024-02-14T04:10:03;4.30;;;2.00;;
74487;SDS011;63019;51.080;13.642;2024-02-14T04:11:06;5.03;;;2.10;;
74487;SDS011;63019;51.080;13.642;2024-02-14T04:12:08;4.38;;;2.10;;
74487;SDS011;63019;51.080;13.642;2024-02-14T04:13:11;3.53;;;1.88;;
74487;SDS011;63019;51.080;13.642;2024-02-14T04:14:13;5.43;;;2.22;;
74487;SDS011;63019;51.080;13.642;2024-02-14T04:15:15;4.85;;;2.17;;
74487;SDS011;63019;51.080;13.642;2024-02-14T04:16:20;5.43;;;2.40;;
74487;SDS011;63019;51.080;13.642;2024-02-14T04:17:22;4.32;;;1.90;;
74487;SDS011;63019;51.080;13.642;2024-02-14T04:18:26;6.30;;;2.03;;
74487;SDS011;63019;51.080;13.642;2024-02-14T04:19:28;7.15;;;2.22;;
74487;SDS011;63019;51.080;13.642;2024-02-14T04:20:30;7.63;;;2.28;;
74487;SDS011;63019;51.080;13.642;2024-02-14T04:21:32;5.27;;;1.83;;
74487;SDS011;63019;51.080;13.642;2024-02-14T04:22:34;5.60;;;2.10;;
74487;SDS011;63019;51.080;13.642;2024-02-14T04:23:36;3.95;;;2.10;;
74487;SDS011;63019;51.080;13.642;2024-02-14T04:24:38;5.13;;;2.00;;
74487;SDS011;63019;51.080;13.642;2024-02-14T04:25:40;6.65;;;2.33;;
74487;SDS011;63019;51.080;13.642;2024-02-14T04:26:42;4.45;;;1.90;;
74487;SDS011;63019;51.080;13.642;2024-02-14T04:27:44;8.25;;;2.30;;
74487;SDS011;63019;51.080;13.642;2024-02-14T04:28:46;4.72;;;2.00;;
74487;SDS011;63019;51.080;13.642;2024-02-14T04:29:48;6.60;;;2.00;;
74487;SDS011;63019;51.080;13.642;2024-02-14T04:30:50;4.47;;;2.05;;
74487;SDS011;63019;51.080;13.642;2024-02-14T04:31:53;8.37;;;4.50;;
74487;SDS011;63019;51.080;13.642;2024-02-14T04:32:55;10.65;;;5.60;;
74487;SDS011;63019;51.080;13.642;2024-02-14T04:33:58;6.05;;;3.55;;
74487;SDS011;63019;51.080;13.642;2024-02-14T04:35:02;7.53;;;2.90;;
74487;SDS011;63019;51.080;13.642;2024-02-14T04:36:07;9.75;;;2.60;;
74487;SDS011;63019;51.080;13.642;2024-02-14T04:37:10;4.50;;;2.08;;
74487;SDS011;63019;51.080;13.642;2024-02-14T04:38:14;3.92;;;2.08;;
74487;SDS011;63019;51.080;13.642;2024-02-14T04:39:17;6.35;;;2.45;;
74487;SDS011;63019;51.080;13.642;2024-02-14T04:40:19;7.35;;;2.10;;
74487;SDS011;63019;51.080;13.642;2024-02-14T04:41:21;3.88;;;2.03;;
74487;SDS011;63019;51.080;13.642;2024-02-14T04:42:27;6.50;;;2.47;;
74487;SDS011;63019;51.080;13.642;2024-02-14T04:43:29;5.53;;;2.40;;
74487;SDS011;63019;51.080;13.642;2024-02-14T04:44:31;6.30;;;2.17;;
74487;SDS011;63019;51.080;13.642;2024-02-14T04:45:34;7.85;;;2.45;;
74487;SDS011;63019;51.080;13.642;2024-02-14T04:46:39;5.68;;;2.35;;
74487;SDS011;63019;51.080;13.642;2024-02-14T04:47:46;4.78;;;2.03;;
74487;SDS011;63019;51.080;13.642;2024-02-14T04:48:48;6.35;;;2.10;;
74487;SDS011;63019;51.080;13.642;2024-02-14T04:50:03;6.78;;;2.20;;
74487;SDS011;63019;51.080;13.642;2024-02-14T04:51:12;6.47;;;2.60;;
74487;SDS011;63019;51.080;13.642;2024-02-14T04:52:14;8.02;;;2.58;;
74487;SDS011;63019;51.080;13.642;2024-02-14T04:53:17;7.30;;;2.37;;
74487;SDS011;63019;51.080;13.642;2024-02-14T04:54:20;6.32;;;2.40;;
74487;SDS011;63019;51.080;13.642;2024-02-14T04:55:25;5.97;;;2.30;;
74487;SDS011;63019;51.080;13.642;2024-02-14T04:56:30;6.95;;;2.50;;
74487;SDS011;63019;51.080;13.642;2024-02-14T04:57:36;6.60;;;2.10;;
74487;SDS011;63019;51.080;13.642;2024-02-14T04:58:43;7.28;;;2.03;;
74487;SDS011;63019;51.080;13.642;2024-02-14T04:59:45;4.55;;;2.30;;
74487;SDS011;63019;51.080;13.642;2024-02-14T05:00:50;6.13;;;2.05;;
74487;SDS011;63019;51.080;13.642;2024-02-14T05:01:56;5.22;;;1.95;;
74487;SDS011;63019;51.080;13.642;2024-02-14T05:03:05;5.38;;;1.80;;
74487;SDS011;63019;51.080;13.642;2024-02-14T05:04:07;5.87;;;2.57;;
74487;SDS011;63019;51.080;13.642;2024-02-14T05:05:09;4.63;;;1.80;;
74487;SDS011;63019;51.080;13.642;2024-02-14T05:06:14;6.13;;;2.55;;
74487;SDS011;63019;51.080;13.642;2024-02-14T05:07:22;5.93;;;1.90;;
74487;SDS011;63019;51.080;13.642;2024-02-14T05:08:32;4.60;;;2.30;;
74487;SDS011;63019;51.080;13.642;2024-02-14T05:09:37;6.00;;;1.88;;
74487;SDS011;63019;51.080;13.642;2024-02-14T05:10:39;5.13;;;2.15;;
74487;SDS011;63019;51.080;13.642;2024-02-14T05:11:41;6.35;;;2.03;;
74487;SDS011;63019;51.080;13.642;2024-02-14T05:12:43;4.47;;;2.17;;
74487;SDS011;63019;51.080;13.642;2024-02-14T05:13:45;5.30;;;2.15;;
74487;SDS011;63019;51.080;13.642;2024-02-14T05:14:48;7.27;;;2.13;;
74487;SDS011;63019;51.080;13.642;2024-02-14T05:15:50;5.03;;;2.10;;
74487;SDS011;63019;51.080;13.642;2024-02-14T05:16:58;4.70;;;2.10;;
74487;SDS011;63019;51.080;13.642;2024-02-14T05:20:05;6.15;;;2.03;;
74487;SDS011;63019;51.080;13.642;2024-02-14T05:21:10;7.88;;;2.83;;
74487;SDS011;63019;51.080;13.642;2024-02-14T05:22:12;5.72;;;2.47;;
74487;SDS011;63019;51.080;13.642;2024-02-14T05:23:17;9.52;;;2.42;;
74487;SDS011;63019;51.080;13.642;2024-02-14T05:24:23;6.22;;;2.53;;
74487;SDS011;63019;51.080;13.642;2024-02-14T05:25:34;7.93;;;2.42;;
74487;SDS011;63019;51.080;13.642;2024-02-14T05:26:36;6.97;;;2.30;;
74487;SDS011;63019;51.080;13.642;2024-02-14T05:27:38;7.25;;;2.15;;
74487;SDS011;63019;51.080;13.642;2024-02-14T05:28:40;7.90;;;2.40;;
74487;SDS011;63019;51.080;13.642;2024-02-14T05:29:43;4.50;;;2.20;;
74487;SDS011;63019;51.080;13.642;2024-02-14T05:30:45;11.40;;;2.60;;
74487;SDS011;63019;51.080;13.642;2024-02-14T05:31:49;3.75;;;2.15;;
74487;SDS011;63019;51.080;13.642;2024-02-14T05:33:18;6.10;;;2.40;;
74487;SDS011;63019;51.080;13.642;2024-02-14T05:35:13;8.25;;;2.63;;
74487;SDS011;63019;51.080;13.642;2024-02-14T05:36:49;8.70;;;2.53;;
74487;SDS011;63019;51.080;13.642;2024-02-14T05:38:16;8.55;;;2.95;;
74487;SDS011;63019;51.080;13.642;2024-02-14T05:39:20;5.80;;;2.43;;
74487;SDS011;63019;51.080;13.642;2024-02-14T05:40:22;6.80;;;2.53;;
74487;SDS011;63019;51.080;13.642;2024-02-14T05:41:25;6.07;;;2.17;;
74487;SDS011;63019;51.080;13.642;2024-02-14T05:42:27;4.85;;;2.35;;
74487;SDS011;63019;51.080;13.642;2024-02-14T05:43:29;5.00;;;2.65;;
74487;SDS011;63019;51.080;13.642;2024-02-14T05:44:31;7.25;;;2.60;;
74487;SDS011;63019;51.080;13.642;2024-02-14T05:45:33;5.05;;;2.10;;
74487;SDS011;63019;51.080;13.642;2024-02-14T05:46:35;4.45;;;2.38;;
74487;SDS011;63019;51.080;13.642;2024-02-14T05:47:37;10.43;;;2.75;;
74487;SDS011;63019;51.080;13.642;2024-02-14T05:48:40;8.05;;;3.40;;
74487;SDS011;63019;51.080;13.642;2024-02-14T05:49:43;7.03;;;3.00;;
74487;SDS011;63019;51.080;13.642;2024-02-14T05:50:45;5.75;;;2.50;;
74487;SDS011;63019;51.080;13.642;2024-02-14T05:51:47;5.50;;;2.35;;
74487;SDS011;63019;51.080;13.642;2024-02-14T05:52:49;6.70;;;2.65;;
74487;SDS011;63019;51.080;13.642;2024-02-14T05:53:51;8.40;;;2.78;;
74487;SDS011;63019;51.080;13.642;2024-02-14T05:54:53;5.10;;;2.28;;
74487;SDS011;63019;51.080;13.642;2024-02-14T05:55:55;4.38;;;2.20;;
74487;SDS011;63019;51.080;13.642;2024-02-14T05:56:57;8.70;;;2.63;;
74487;SDS011;63019;51.080;13.642;2024-02-14T05:57:59;6.65;;;2.42;;
74487;SDS011;63019;51.080;13.642;2024-02-14T05:59:01;7.22;;;2.40;;
74487;SDS011;63019;51.080;13.642;2024-02-14T06:00:04;5.87;;;2.30;;
74487;SDS011;63019;51.080;13.642;2024-02-14T06:01:07;7.18;;;2.63;;
74487;SDS011;63019;51.080;13.642;2024-02-14T06:02:08;7.45;;;2.70;;
74487;SDS011;63019;51.080;13.642;2024-02-14T06:03:11;8.75;;;2.70;;
74487;SDS011;63019;51.080;13.642;2024-02-14T06:04:13;7.72;;;2.60;;
74487;SDS011;63019;51.080;13.642;2024-02-14T06:05:15;6.53;;;2.55;;
74487;SDS011;63019;51.080;13.642;2024-02-14T06:06:17;11.55;;;2.60;;
74487;SDS011;63019;51.080;13.642;2024-02-14T06:07:19;5.82;;;2.80;;
74487;SDS011;63019;51.080;13.642;2024-02-14T06:08:21;7.97;;;2.72;;
74487;SDS011;63019;51.080;13.642;2024-02-14T06:09:24;8.13;;;2.80;;
74487;SDS011;63019;51.080;13.642;2024-02-14T06:10:26;6.60;;;2.60;;
74487;SDS011;63019;51.080;13.642;2024-02-14T06:11:28;5.25;;;2.42;;
74487;SDS011;63019;51.080;13.642;2024-02-14T06:12:30;6.93;;;2.85;;
74487;SDS011;63019;51.080;13.642;2024-02-14T06:13:33;6.32;;;2.72;;
74487;SDS011;63019;51.080;13.642;2024-02-14T06:14:36;7.55;;;3.00;;
74487;SDS011;63019;51.080;13.642;2024-02-14T06:15:38;10.27;;;3.00;;
74487;SDS011;63019;51.080;13.642;2024-02-14T06:16:40;6.50;;;2.88;;
74487;SDS011;63019;51.080;13.642;2024-02-14T06:17:42;9.13;;;2.95;;
74487;SDS011;63019;51.080;13.642;2024-02-14T06:18:44;7.05;;;2.83;;
74487;SDS011;63019;51.080;13.642;2024-02-14T06:19:47;5.15;;;2.85;;
74487;SDS011;63019;51.080;13.642;2024-02-14T06:20:49;6.70;;;2.80;;
74487;SDS011;63019;51.080;13.642;2024-02-14T06:21:51;6.30;;;2.67;;
74487;SDS011;63019;51.080;13.642;2024-02-14T06:22:52;10.95;;;2.65;;
74487;SDS011;63019;51.080;13.642;2024-02-14T06:24:05;6.47;;;2.50;;
74487;SDS011;63019;51.080;13.642;2024-02-14T06:25:07;5.95;;;2.60;;
74487;SDS011;63019;51.080;13.642;2024-02-14T06:26:09;6.20;;;2.28;;
74487;SDS011;63019;51.080;13.642;2024-02-14T06:27:11;6.93;;;3.10;;